메인 페이지
METAR-TAF:

METAR-TAF

공항 :

Pirassununga, 상파울루, 브라질

위도: 21-59S, 경도: 047-20W, 고도: 597m

현재 날씨관측

예보는 1 시간 21분 전, 01:00시(UTC)에 발표되었습니다.
북북서6kt
온도 22°C
습도 88%
기압 1014 hPa
시정 10km 이상
1500m 미만 상공 구름 및 적란운 없음

METAR: SBYS 030100Z 33006KT CAVOK 22/20 Q1014

시각: 23:21 (02:21 UTC)

예보

예보는 5 시간 21분 전, 21:00시(UTC)에 발표되었습니다.
예보 대상 시간: 03일 00시부터 03일 12시까지 (UTC)
북서5kt
시정 10km 이상
1500m 미만 상공 구름 및 적란운 없음
전환 중
03일 04시부터 03일 06시까지 (UTC)
시정: 5000m
박무
전환 중
03일 10시부터 03일 12시까지 (UTC)
북서8kt
시정 10km 이상
고도 3000ft 상공 구름 조금

TAF: SBYS 022100Z 0300/0312 32005KT CAVOK TN19/0309Z TX24/0312Z BECMG 0304/0306 5000 BR NSC BECMG 0310/0312 31008KT 9999 FEW030 RMK PDJ

4,000개 이상의 공항 관측 자료 및 예보 (METAR 및 TAF 보고).

지도상에서 검색 가능한 기상관측소가 노란 점과 빨간 점으로 표시되어 있습니다.

기상관측소 명을 보려면 표시 위로 마우스를 이동하세요.

날씨 관측과 예보를 보려면 클릭하세요.

지도 변경 : 확대하려면 엑스 표시가 있는 녹색 버튼, 축소하려면 빼기 표시가 있는 녹색 버튼, 다음 페이지의 지도를 보려면 녹색 화살표를 클릭하세요.


METAR-TAF: